sensor_id;sensor_type;location;lat;lon;timestamp;pressure;altitude;pressure_sealevel;temperature;humidity
78643;BME280;67954;47.618;17.606;2023-03-22T00:00:25;100226.16;;;11.18;62.79
78643;BME280;67954;47.618;17.606;2023-03-22T00:00:58;100229.72;;;11.19;62.41
78643;BME280;67954;47.618;17.606;2023-03-22T00:01:29;100236.78;;;11.20;62.32
78643;BME280;67954;47.618;17.606;2023-03-22T00:02:00;100228.72;;;11.20;62.71
78643;BME280;67954;47.618;17.606;2023-03-22T00:02:32;100235.09;;;11.19;62.45
78643;BME280;67954;47.618;17.606;2023-03-22T00:03:03;100227.72;;;11.21;62.43
78643;BME280;67954;47.618;17.606;2023-03-22T00:03:35;100227.88;;;11.19;62.06
78643;BME280;67954;47.618;17.606;2023-03-22T00:04:05;100233.03;;;11.13;62.03
78643;BME280;67954;47.618;17.606;2023-03-22T00:04:37;100236.41;;;11.15;62.20
78643;BME280;67954;47.618;17.606;2023-03-22T00:05:09;100227.72;;;11.21;62.11
78643;BME280;67954;47.618;17.606;2023-03-22T00:05:39;100227.56;;;11.22;61.69
78643;BME280;67954;47.618;17.606;2023-03-22T00:06:12;100228.41;;;11.23;62.03
78643;BME280;67954;47.618;17.606;2023-03-22T00:06:43;100230.09;;;11.24;62.20
78643;BME280;67954;47.618;17.606;2023-03-22T00:07:14;100230.09;;;11.24;62.26
78643;BME280;67954;47.618;17.606;2023-03-22T00:07:46;100228.81;;;11.28;62.20
78643;BME280;67954;47.618;17.606;2023-03-22T00:08:19;100227.97;;;11.27;61.85
78643;BME280;67954;47.618;17.606;2023-03-22T00:08:52;100227.41;;;11.24;61.91
78643;BME280;67954;47.618;17.606;2023-03-22T00:09:24;100225.56;;;11.24;62.18
78643;BME280;67954;47.618;17.606;2023-03-22T00:09:54;100221.75;;;11.27;62.24
78643;BME280;67954;47.618;17.606;2023-03-22T00:10:27;100225.13;;;11.29;61.76
78643;BME280;67954;47.618;17.606;2023-03-22T00:10:58;100221.41;;;11.30;62.10
78643;BME280;67954;47.618;17.606;2023-03-22T00:11:30;100221.13;;;11.33;62.15
78643;BME280;67954;47.618;17.606;2023-03-22T00:12:01;100215.59;;;11.34;62.12
78643;BME280;67954;47.618;17.606;2023-03-22T00:12:32;100218.28;;;11.34;62.00
78643;BME280;67954;47.618;17.606;2023-03-22T00:13:05;100210.19;;;11.34;62.23
78643;BME280;67954;47.618;17.606;2023-03-22T00:13:38;100222.66;;;11.35;62.23
78643;BME280;67954;47.618;17.606;2023-03-22T00:14:12;100217.44;;;11.34;61.72
78643;BME280;67954;47.618;17.606;2023-03-22T00:14:43;100217.97;;;11.37;61.82
78643;BME280;67954;47.618;17.606;2023-03-22T00:15:15;100215.13;;;11.39;61.91
78643;BME280;67954;47.618;17.606;2023-03-22T00:15:46;100215.84;;;11.41;61.78
78643;BME280;67954;47.618;17.606;2023-03-22T00:16:19;100214.28;;;11.38;62.15
78643;BME280;67954;47.618;17.606;2023-03-22T00:16:51;100217.28;;;11.35;62.43
78643;BME280;67954;47.618;17.606;2023-03-22T00:17:22;100217.97;;;11.37;62.39
78643;BME280;67954;47.618;17.606;2023-03-22T00:17:55;100214.59;;;11.35;62.20
78643;BME280;67954;47.618;17.606;2023-03-22T00:18:29;100215.72;;;11.33;62.09
78643;BME280;67954;47.618;17.606;2023-03-22T00:18:59;100215.72;;;11.33;61.87
78643;BME280;67954;47.618;17.606;2023-03-22T00:19:30;100214.59;;;11.35;61.73
78643;BME280;67954;47.618;17.606;2023-03-22T00:20:04;100212.44;;;11.39;61.64
78643;BME280;67954;47.618;17.606;2023-03-22T00:20:36;100218.13;;;11.36;62.44
78643;BME280;67954;47.618;17.606;2023-03-22T00:21:10;100218.97;;;11.36;61.99
78643;BME280;67954;47.618;17.606;2023-03-22T00:21:42;100211.75;;;11.37;62.00
78643;BME280;67954;47.618;17.606;2023-03-22T00:22:14;100218.53;;;11.41;62.15
78643;BME280;67954;47.618;17.606;2023-03-22T00:22:46;100219.19;;;11.43;62.19
78643;BME280;67954;47.618;17.606;2023-03-22T00:23:17;100214.84;;;11.42;62.15
78643;BME280;67954;47.618;17.606;2023-03-22T00:23:47;100214.28;;;11.38;62.49
78643;BME280;67954;47.618;17.606;2023-03-22T00:24:20;100210.44;;;11.41;62.23
78643;BME280;67954;47.618;17.606;2023-03-22T00:24:51;100214.84;;;11.42;62.38
78643;BME280;67954;47.618;17.606;2023-03-22T00:25:22;100210.28;;;11.42;61.79
78643;BME280;67954;47.618;17.606;2023-03-22T00:25:53;100214.84;;;11.42;61.95
78643;BME280;67954;47.618;17.606;2023-03-22T00:26:25;100207.91;;;11.39;62.30
78643;BME280;67954;47.618;17.606;2023-03-22T00:26:56;100201.38;;;11.42;62.01
78643;BME280;67954;47.618;17.606;2023-03-22T00:27:28;100204.06;;;11.42;62.33
78643;BME280;67954;47.618;17.606;2023-03-22T00:28:00;100206.59;;;11.43;62.31
78643;BME280;67954;47.618;17.606;2023-03-22T00:28:31;100202.19;;;11.42;62.20
78643;BME280;67954;47.618;17.606;2023-03-22T00:29:03;100201.19;;;11.43;62.11
78643;BME280;67954;47.618;17.606;2023-03-22T00:29:35;100194.13;;;11.42;62.36
78643;BME280;67954;47.618;17.606;2023-03-22T00:30:08;100199.84;;;11.39;62.53
78643;BME280;67954;47.618;17.606;2023-03-22T00:30:39;100201.13;;;11.35;62.36
78643;BME280;67954;47.618;17.606;2023-03-22T00:31:10;100202.69;;;11.38;61.45
78643;BME280;67954;47.618;17.606;2023-03-22T00:31:42;100197.16;;;11.39;61.23
78643;BME280;67954;47.618;17.606;2023-03-22T00:32:13;100194.97;;;11.43;61.18
78643;BME280;67954;47.618;17.606;2023-03-22T00:32:44;100200.34;;;11.43;61.35
78643;BME280;67954;47.618;17.606;2023-03-22T00:33:16;100200.53;;;11.41;62.21
78643;BME280;67954;47.618;17.606;2023-03-22T00:33:47;100192.28;;;11.43;62.03
78643;BME280;67954;47.618;17.606;2023-03-22T00:34:18;100199.34;;;11.44;62.32
78643;BME280;67954;47.618;17.606;2023-03-22T00:34:50;100193.31;;;11.42;62.61
78643;BME280;67954;47.618;17.606;2023-03-22T00:35:20;100195.66;;;11.45;62.02
78643;BME280;67954;47.618;17.606;2023-03-22T00:35:53;100196.38;;;11.47;61.52
78643;BME280;67954;47.618;17.606;2023-03-22T00:36:25;100196.22;;;11.49;61.83
78643;BME280;67954;47.618;17.606;2023-03-22T00:36:56;100196.91;;;11.51;61.72
78643;BME280;67954;47.618;17.606;2023-03-22T00:37:26;100193.06;;;11.53;61.19
78643;BME280;67954;47.618;17.606;2023-03-22T00:38:03;100187.53;;;11.55;61.16
78643;BME280;67954;47.618;17.606;2023-03-22T00:38:36;100194.75;;;11.54;61.45
78643;BME280;67954;47.618;17.606;2023-03-22T00:39:08;100190.03;;;11.56;60.90
78643;BME280;67954;47.618;17.606;2023-03-22T00:39:41;100194.06;;;11.52;61.19
78643;BME280;67954;47.618;17.606;2023-03-22T00:40:13;100192.81;;;11.46;61.69
78643;BME280;67954;47.618;17.606;2023-03-22T00:40:44;100192.28;;;11.43;61.57
78643;BME280;67954;47.618;17.606;2023-03-22T00:41:17;100189.09;;;11.39;61.84
78643;BME280;67954;47.618;17.606;2023-03-22T00:41:49;100194.31;;;11.41;61.65
78643;BME280;67954;47.618;17.606;2023-03-22T00:42:20;100193.81;;;11.45;61.07
78643;BME280;67954;47.618;17.606;2023-03-22T00:42:52;100191.97;;;11.46;60.95
78643;BME280;67954;47.618;17.606;2023-03-22T00:43:23;100193.13;;;11.43;61.35
78643;BME280;67954;47.618;17.606;2023-03-22T00:43:54;100201.00;;;11.37;61.62
78643;BME280;67954;47.618;17.606;2023-03-22T00:44:27;100194.22;;;11.33;62.01
78643;BME280;67954;47.618;17.606;2023-03-22T00:44:58;100198.06;;;11.30;62.13
78643;BME280;67954;47.618;17.606;2023-03-22T00:45:28;100199.59;;;11.33;62.37
78643;BME280;67954;47.618;17.606;2023-03-22T00:45:59;100195.53;;;11.29;62.42
78643;BME280;67954;47.618;17.606;2023-03-22T00:46:31;100195.69;;;11.27;62.84
78643;BME280;67954;47.618;17.606;2023-03-22T00:47:02;100191.31;;;11.26;62.83
78643;BME280;67954;47.618;17.606;2023-03-22T00:47:33;100197.84;;;11.24;62.83
78643;BME280;67954;47.618;17.606;2023-03-22T00:48:06;100194.44;;;11.22;62.92
78643;BME280;67954;47.618;17.606;2023-03-22T00:48:38;100194.00;;;11.26;62.71
78643;BME280;67954;47.618;17.606;2023-03-22T00:49:10;100192.84;;;11.29;62.97
78643;BME280;67954;47.618;17.606;2023-03-22T00:49:40;100191.16;;;11.28;62.92
78643;BME280;67954;47.618;17.606;2023-03-22T00:50:11;100192.84;;;11.29;62.62
78643;BME280;67954;47.618;17.606;2023-03-22T00:50:43;100194.53;;;11.30;63.08
78643;BME280;67954;47.618;17.606;2023-03-22T00:51:15;100190.84;;;11.31;63.18
78643;BME280;67954;47.618;17.606;2023-03-22T00:51:46;100191.69;;;11.31;63.44
78643;BME280;67954;47.618;17.606;2023-03-22T00:52:18;100191.81;;;11.30;63.09
78643;BME280;67954;47.618;17.606;2023-03-22T00:52:48;100197.13;;;11.22;63.42
78643;BME280;67954;47.618;17.606;2023-03-22T00:53:19;100194.16;;;11.25;63.53
78643;BME280;67954;47.618;17.606;2023-03-22T00:53:50;100189.78;;;11.24;63.10
78643;BME280;67954;47.618;17.606;2023-03-22T00:54:23;100194.38;;;11.14;63.61
78643;BME280;67954;47.618;17.606;2023-03-22T00:54:54;100196.38;;;11.12;63.70
78643;BME280;67954;47.618;17.606;2023-03-22T00:55:25;100196.44;;;11.02;63.90
78643;BME280;67954;47.618;17.606;2023-03-22T00:55:56;100199.88;;;10.94;64.12
78643;BME280;67954;47.618;17.606;2023-03-22T00:56:28;100201.88;;;10.92;64.39
78643;BME280;67954;47.618;17.606;2023-03-22T00:56:58;100205.53;;;10.91;64.66
78643;BME280;67954;47.618;17.606;2023-03-22T00:57:29;100193.81;;;10.92;64.26
78643;BME280;67954;47.618;17.606;2023-03-22T00:58:01;100203.88;;;10.90;64.60
78643;BME280;67954;47.618;17.606;2023-03-22T00:58:32;100201.50;;;10.87;64.66
78643;BME280;67954;47.618;17.606;2023-03-22T00:59:03;100204.47;;;10.84;64.99
78643;BME280;67954;47.618;17.606;2023-03-22T00:59:36;100204.22;;;10.78;65.25
78643;BME280;67954;47.618;17.606;2023-03-22T01:00:09;100195.72;;;10.82;64.91
78643;BME280;67954;47.618;17.606;2023-03-22T01:00:42;100195.81;;;10.90;64.60
78643;BME280;67954;47.618;17.606;2023-03-22T01:01:14;100198.19;;;10.93;64.51
78643;BME280;67954;47.618;17.606;2023-03-22T01:01:46;100197.34;;;10.93;64.44
78643;BME280;67954;47.618;17.606;2023-03-22T01:02:17;100195.34;;;10.95;64.43
78643;BME280;67954;47.618;17.606;2023-03-22T01:02:47;100197.88;;;10.96;64.45
78643;BME280;67954;47.618;17.606;2023-03-22T01:03:18;100194.91;;;10.99;64.54
78643;BME280;67954;47.618;17.606;2023-03-22T01:03:51;100194.06;;;10.99;64.76
78643;BME280;67954;47.618;17.606;2023-03-22T01:04:22;100195.19;;;10.96;64.48
78643;BME280;67954;47.618;17.606;2023-03-22T01:04:55;100200.94;;;10.84;64.94
78643;BME280;67954;47.618;17.606;2023-03-22T01:05:29;100194.03;;;10.81;64.99
78643;BME280;67954;47.618;17.606;2023-03-22T01:06:00;100191.81;;;10.77;65.07
78643;BME280;67954;47.618;17.606;2023-03-22T01:06:31;100202.22;;;10.80;65.27
78643;BME280;67954;47.618;17.606;2023-03-22T01:07:03;100196.41;;;10.84;65.30
78643;BME280;67954;47.618;17.606;2023-03-22T01:07:37;100197.25;;;10.85;64.85
78643;BME280;67954;47.618;17.606;2023-03-22T01:08:11;100188.56;;;10.91;64.86
78643;BME280;67954;47.618;17.606;2023-03-22T01:08:44;100193.66;;;10.94;64.84
78643;BME280;67954;47.618;17.606;2023-03-22T01:09:15;100199.03;;;10.94;64.67
78643;BME280;67954;47.618;17.606;2023-03-22T01:09:46;100191.81;;;10.94;64.58
78643;BME280;67954;47.618;17.606;2023-03-22T01:10:18;100193.34;;;10.97;64.43
78643;BME280;67954;47.618;17.606;2023-03-22T01:10:49;100199.59;;;10.97;64.41
78643;BME280;67954;47.618;17.606;2023-03-22T01:11:20;100202.28;;;10.97;64.40
78643;BME280;67954;47.618;17.606;2023-03-22T01:11:51;100196.34;;;10.94;64.78
78643;BME280;67954;47.618;17.606;2023-03-22T01:12:23;100199.03;;;10.94;64.19
78643;BME280;67954;47.618;17.606;2023-03-22T01:12:54;100194.50;;;10.94;64.62
78643;BME280;67954;47.618;17.606;2023-03-22T01:13:26;100192.22;;;10.99;64.14
78643;BME280;67954;47.618;17.606;2023-03-22T01:13:58;100195.59;;;11.01;64.12
78643;BME280;67954;47.618;17.606;2023-03-22T01:14:29;100190.38;;;11.00;64.12
78643;BME280;67954;47.618;17.606;2023-03-22T01:15:03;100201.72;;;10.94;64.42
78643;BME280;67954;47.618;17.606;2023-03-22T01:15:34;100194.72;;;10.83;64.52
78643;BME280;67954;47.618;17.606;2023-03-22T01:16:07;100201.38;;;10.79;64.81
78643;BME280;67954;47.618;17.606;2023-03-22T01:16:38;100198.41;;;10.82;64.79
78643;BME280;67954;47.618;17.606;2023-03-22T01:17:10;100198.03;;;10.77;65.07
78643;BME280;67954;47.618;17.606;2023-03-22T01:17:42;100205.38;;;10.75;64.90
78643;BME280;67954;47.618;17.606;2023-03-22T01:18:13;100197.75;;;10.70;65.15
78643;BME280;67954;47.618;17.606;2023-03-22T01:18:44;100195.78;;;10.72;65.22
78643;BME280;67954;47.618;17.606;2023-03-22T01:19:16;100193.81;;;10.65;65.27
78643;BME280;67954;47.618;17.606;2023-03-22T01:19:46;100188.78;;;10.62;65.46
78643;BME280;67954;47.618;17.606;2023-03-22T01:20:17;100199.41;;;10.54;65.73
78643;BME280;67954;47.618;17.606;2023-03-22T01:20:50;100205.09;;;10.41;66.19
78643;BME280;67954;47.618;17.606;2023-03-22T01:21:21;100199.88;;;10.39;66.25
78643;BME280;67954;47.618;17.606;2023-03-22T01:21:52;100192.84;;;10.29;66.51
78643;BME280;67954;47.618;17.606;2023-03-22T01:22:24;100203.19;;;10.14;67.10
78643;BME280;67954;47.618;17.606;2023-03-22T01:22:55;100202.81;;;10.09;67.38
78643;BME280;67954;47.618;17.606;2023-03-22T01:23:26;100200.81;;;10.11;67.35
78643;BME280;67954;47.618;17.606;2023-03-22T01:23:58;100196.72;;;10.07;67.70
78643;BME280;67954;47.618;17.606;2023-03-22T01:24:29;100197.00;;;10.04;67.77
78643;BME280;67954;47.618;17.606;2023-03-22T01:25:00;100190.75;;;10.13;67.12
78643;BME280;67954;47.618;17.606;2023-03-22T01:25:32;100197.97;;;10.13;67.28
78643;BME280;67954;47.618;17.606;2023-03-22T01:26:03;100192.44;;;10.14;67.43
78643;BME280;67954;47.618;17.606;2023-03-22T01:26:34;100188.41;;;10.10;67.65
78643;BME280;67954;47.618;17.606;2023-03-22T01:27:07;100191.47;;;10.15;67.55
78643;BME280;67954;47.618;17.606;2023-03-22T01:27:37;100187.41;;;10.21;67.13
78643;BME280;67954;47.618;17.606;2023-03-22T01:28:08;100186.78;;;10.27;67.07
78643;BME280;67954;47.618;17.606;2023-03-22T01:28:39;100191.31;;;10.26;67.04
78643;BME280;67954;47.618;17.606;2023-03-22T01:29:11;100189.19;;;10.30;67.05
78643;BME280;67954;47.618;17.606;2023-03-22T01:29:42;100190.19;;;10.29;67.07
78643;BME280;67954;47.618;17.606;2023-03-22T01:30:14;100192.44;;;10.33;67.04
78643;BME280;67954;47.618;17.606;2023-03-22T01:30:46;100191.88;;;10.30;66.78
78643;BME280;67954;47.618;17.606;2023-03-22T01:31:17;100185.06;;;10.35;66.77
78643;BME280;67954;47.618;17.606;2023-03-22T01:31:48;100188.69;;;10.44;66.72
78643;BME280;67954;47.618;17.606;2023-03-22T01:32:20;100179.50;;;10.47;66.63
78643;BME280;67954;47.618;17.606;2023-03-22T01:32:51;100182.91;;;10.49;66.46
78643;BME280;67954;47.618;17.606;2023-03-22T01:33:22;100190.63;;;10.52;66.40
78643;BME280;67954;47.618;17.606;2023-03-22T01:33:54;100178.91;;;10.53;66.30
78643;BME280;67954;47.618;17.606;2023-03-22T01:34:25;100182.56;;;10.52;66.01
78643;BME280;67954;47.618;17.606;2023-03-22T01:34:56;100180.91;;;10.51;66.10
78643;BME280;67954;47.618;17.606;2023-03-22T01:35:28;100177.19;;;10.52;65.90
78643;BME280;67954;47.618;17.606;2023-03-22T01:36:00;100190.25;;;10.47;65.90
78643;BME280;67954;47.618;17.606;2023-03-22T01:36:30;100187.84;;;10.44;65.79
78643;BME280;67954;47.618;17.606;2023-03-22T01:37:02;100189.25;;;10.48;65.85
78643;BME280;67954;47.618;17.606;2023-03-22T01:37:33;100182.91;;;10.49;65.61
78643;BME280;67954;47.618;17.606;2023-03-22T01:38:04;100190.25;;;10.47;65.65
78643;BME280;67954;47.618;17.606;2023-03-22T01:38:36;100190.09;;;10.48;65.45
78643;BME280;67954;47.618;17.606;2023-03-22T01:39:07;100180.72;;;10.52;65.12
78643;BME280;67954;47.618;17.606;2023-03-22T01:39:38;100184.28;;;10.53;65.03
78643;BME280;67954;47.618;17.606;2023-03-22T01:40:11;100191.25;;;10.46;65.19
78643;BME280;67954;47.618;17.606;2023-03-22T01:40:42;100186.28;;;10.51;65.17
78643;BME280;67954;47.618;17.606;2023-03-22T01:41:14;100183.75;;;10.49;65.20
78643;BME280;67954;47.618;17.606;2023-03-22T01:41:46;100179.59;;;10.55;65.40
78643;BME280;67954;47.618;17.606;2023-03-22T01:42:17;100182.13;;;10.56;65.14
78643;BME280;67954;47.618;17.606;2023-03-22T01:42:51;100176.63;;;10.58;65.25
78643;BME280;67954;47.618;17.606;2023-03-22T01:43:23;100171.94;;;10.60;64.94
78643;BME280;67954;47.618;17.606;2023-03-22T01:44:08;100176.47;;;10.59;64.72
78643;BME280;67954;47.618;17.606;2023-03-22T01:44:41;100174.94;;;10.57;64.95
78643;BME280;67954;47.618;17.606;2023-03-22T01:45:33;100182.28;;;10.55;64.86
78643;BME280;67954;47.618;17.606;2023-03-22T01:46:05;100174.63;;;10.60;65.03
78643;BME280;67954;47.618;17.606;2023-03-22T01:46:37;100185.03;;;10.72;64.48
78643;BME280;67954;47.618;17.606;2023-03-22T01:47:09;100180.38;;;10.65;64.09
78643;BME280;67954;47.618;17.606;2023-03-22T01:47:44;100183.91;;;10.65;63.91
78643;BME280;67954;47.618;17.606;2023-03-22T01:48:22;100179.78;;;10.71;63.91
78643;BME280;67954;47.618;17.606;2023-03-22T01:48:55;100182.91;;;10.76;63.83
78643;BME280;67954;47.618;17.606;2023-03-22T01:49:30;100179.88;;;10.79;63.88
78643;BME280;67954;47.618;17.606;2023-03-22T01:50:02;100179.94;;;10.69;64.32
78643;BME280;67954;47.618;17.606;2023-03-22T01:50:36;100179.09;;;10.69;64.47
78643;BME280;67954;47.618;17.606;2023-03-22T01:51:10;100175.97;;;10.73;64.23
78643;BME280;67954;47.618;17.606;2023-03-22T01:51:45;100177.41;;;10.68;64.37
78643;BME280;67954;47.618;17.606;2023-03-22T01:52:17;100172.88;;;10.68;64.56
78643;BME280;67954;47.618;17.606;2023-03-22T01:52:49;100171.88;;;10.69;64.34
78643;BME280;67954;47.618;17.606;2023-03-22T01:53:23;100175.56;;;10.68;64.51
78643;BME280;67954;47.618;17.606;2023-03-22T01:54:00;100176.88;;;10.64;64.84
78643;BME280;67954;47.618;17.606;2023-03-22T01:54:37;100168.66;;;10.66;64.99
78643;BME280;67954;47.618;17.606;2023-03-22T01:55:12;100175.72;;;10.67;64.99
78643;BME280;67954;47.618;17.606;2023-03-22T01:55:44;100175.28;;;10.71;64.48
78643;BME280;67954;47.618;17.606;2023-03-22T01:56:17;100165.06;;;10.75;64.35
78643;BME280;67954;47.618;17.606;2023-03-22T01:56:49;100173.66;;;10.79;64.52
78643;BME280;67954;47.618;17.606;2023-03-22T01:57:22;100172.38;;;10.83;64.21
78643;BME280;67954;47.618;17.606;2023-03-22T01:57:54;100170.22;;;10.86;64.38
78643;BME280;67954;47.618;17.606;2023-03-22T01:58:25;100164.72;;;10.88;64.33
78643;BME280;67954;47.618;17.606;2023-03-22T01:58:57;100162.72;;;10.90;64.32
78643;BME280;67954;47.618;17.606;2023-03-22T01:59:28;100167.91;;;10.91;64.28
78643;BME280;67954;47.618;17.606;2023-03-22T02:00:00;100158.84;;;10.92;63.69
78643;BME280;67954;47.618;17.606;2023-03-22T02:00:35;100164.09;;;10.94;64.00
78643;BME280;67954;47.618;17.606;2023-03-22T02:01:07;100156.88;;;10.94;63.97
78643;BME280;67954;47.618;17.606;2023-03-22T02:01:40;100166.78;;;10.94;63.98
78643;BME280;67954;47.618;17.606;2023-03-22T02:02:12;100167.19;;;10.99;63.68
78643;BME280;67954;47.618;17.606;2023-03-22T02:02:46;100168.72;;;11.01;63.96
78643;BME280;67954;47.618;17.606;2023-03-22T02:03:25;100160.50;;;11.03;63.44
78643;BME280;67954;47.618;17.606;2023-03-22T02:04:04;100163.56;;;11.08;63.24
78643;BME280;67954;47.618;17.606;2023-03-22T02:04:37;100165.09;;;11.10;63.18
78643;BME280;67954;47.618;17.606;2023-03-22T02:05:09;100168.50;;;11.13;62.81
78643;BME280;67954;47.618;17.606;2023-03-22T02:05:42;100164.66;;;11.15;62.84
78643;BME280;67954;47.618;17.606;2023-03-22T02:06:13;100167.34;;;11.15;63.11
78643;BME280;67954;47.618;17.606;2023-03-22T02:06:44;100169.84;;;11.17;62.81
78643;BME280;67954;47.618;17.606;2023-03-22T02:07:17;100168.84;;;11.18;62.83
78643;BME280;67954;47.618;17.606;2023-03-22T02:07:55;100168.84;;;11.18;62.93
78643;BME280;67954;47.618;17.606;2023-03-22T02:08:27;100163.47;;;11.18;63.16
78643;BME280;67954;47.618;17.606;2023-03-22T02:08:59;100160.97;;;11.16;63.19
78643;BME280;67954;47.618;17.606;2023-03-22T02:09:30;100167.50;;;11.14;63.52
78643;BME280;67954;47.618;17.606;2023-03-22T02:10:01;100172.53;;;11.17;63.09
78643;BME280;67954;47.618;17.606;2023-03-22T02:10:33;100166.50;;;11.15;63.87
78643;BME280;67954;47.618;17.606;2023-03-22T02:11:06;100173.03;;;11.12;63.62
78643;BME280;67954;47.618;17.606;2023-03-22T02:11:40;100164.94;;;11.12;63.59
78643;BME280;67954;47.618;17.606;2023-03-22T02:12:23;100171.19;;;11.13;63.99
78643;BME280;67954;47.618;17.606;2023-03-22T02:13:19;100172.88;;;11.14;63.97
78643;BME280;67954;47.618;17.606;2023-03-22T02:14:18;100174.31;;;11.08;64.43
78643;BME280;67954;47.618;17.606;2023-03-22T02:15:04;100168.56;;;11.03;64.54
78643;BME280;67954;47.618;17.606;2023-03-22T02:15:43;100179.84;;;11.06;64.53
78643;BME280;67954;47.618;17.606;2023-03-22T02:16:28;100171.78;;;11.06;64.67
78643;BME280;67954;47.618;17.606;2023-03-22T02:17:18;100172.78;;;11.05;64.63
78643;BME280;67954;47.618;17.606;2023-03-22T02:18:12;100179.31;;;11.03;64.74
78643;BME280;67954;47.618;17.606;2023-03-22T02:19:03;100171.56;;;11.00;64.97
78643;BME280;67954;47.618;17.606;2023-03-22T02:20:02;100178.91;;;10.98;65.28
78643;BME280;67954;47.618;17.606;2023-03-22T02:22:08;100179.84;;;10.89;65.09
78643;BME280;67954;47.618;17.606;2023-03-22T02:23:09;100180.97;;;10.86;65.67
78643;BME280;67954;47.618;17.606;2023-03-22T02:25:32;100184.88;;;10.92;65.52
78643;BME280;67954;47.618;17.606;2023-03-22T02:27:31;100175.56;;;10.68;66.02
78643;BME280;67954;47.618;17.606;2023-03-22T02:28:16;100180.78;;;10.70;65.81
78643;BME280;67954;47.618;17.606;2023-03-22T02:28:56;100180.94;;;10.68;65.91
78643;BME280;67954;47.618;17.606;2023-03-22T02:29:39;100175.22;;;10.54;66.35
78643;BME280;67954;47.618;17.606;2023-03-22T02:31:41;100176.19;;;10.62;66.11
78643;BME280;67954;47.618;17.606;2023-03-22T02:32:50;100181.75;;;10.51;66.47
78643;BME280;67954;47.618;17.606;2023-03-22T02:33:46;100177.19;;;10.52;66.39
78643;BME280;67954;47.618;17.606;2023-03-22T02:34:57;100183.75;;;10.49;66.42
78643;BME280;67954;47.618;17.606;2023-03-22T02:35:56;100173.84;;;10.50;66.50
78643;BME280;67954;47.618;17.606;2023-03-22T02:36:59;100178.66;;;10.46;66.36
78643;BME280;67954;47.618;17.606;2023-03-22T02:39:06;100183.19;;;10.46;66.82
78643;BME280;67954;47.618;17.606;2023-03-22T02:39:46;100185.59;;;10.49;66.44
78643;BME280;67954;47.618;17.606;2023-03-22T02:40:26;100176.97;;;10.45;66.46
78643;BME280;67954;47.618;17.606;2023-03-22T02:41:09;100178.72;;;10.36;66.58
78643;BME280;67954;47.618;17.606;2023-03-22T02:41:49;100179.09;;;10.42;66.77
78643;BME280;67954;47.618;17.606;2023-03-22T02:42:39;100178.50;;;10.48;66.98
78643;BME280;67954;47.618;17.606;2023-03-22T02:43:20;100176.06;;;10.54;66.40
78643;BME280;67954;47.618;17.606;2023-03-22T02:44:05;100180.84;;;10.60;66.30
78643;BME280;67954;47.618;17.606;2023-03-22T02:44:40;100185.94;;;10.63;66.04
78643;BME280;67954;47.618;17.606;2023-03-22T02:45:15;100182.69;;;10.60;66.30
78643;BME280;67954;47.618;17.606;2023-03-22T02:45:54;100181.16;;;10.57;66.00
78643;BME280;67954;47.618;17.606;2023-03-22T02:46:34;100182.00;;;10.58;66.23
78643;BME280;67954;47.618;17.606;2023-03-22T02:47:15;100182.53;;;10.61;66.14
78643;BME280;67954;47.618;17.606;2023-03-22T02:47:55;100184.94;;;10.64;65.98
78643;BME280;67954;47.618;17.606;2023-03-22T02:48:32;100187.31;;;10.67;65.80
78643;BME280;67954;47.618;17.606;2023-03-22T02:49:13;100186.53;;;10.57;65.79
78643;BME280;67954;47.618;17.606;2023-03-22T02:49:54;100183.69;;;10.59;66.00
78643;BME280;67954;47.618;17.606;2023-03-22T02:50:33;100186.94;;;10.62;65.65
78643;BME280;67954;47.618;17.606;2023-03-22T02:51:11;100187.38;;;10.58;66.17
78643;BME280;67954;47.618;17.606;2023-03-22T02:51:51;100187.63;;;10.64;65.82
78643;BME280;67954;47.618;17.606;2023-03-22T02:52:32;100183.75;;;10.49;66.35
78643;BME280;67954;47.618;17.606;2023-03-22T02:53:13;100180.22;;;10.49;66.47
78643;BME280;67954;47.618;17.606;2023-03-22T02:53:51;100183.19;;;10.46;66.52
78643;BME280;67954;47.618;17.606;2023-03-22T02:54:29;100186.44;;;10.49;66.53
78643;BME280;67954;47.618;17.606;2023-03-22T02:55:10;100188.50;;;10.55;66.41
78643;BME280;67954;47.618;17.606;2023-03-22T02:55:49;100181.16;;;10.57;66.54
78643;BME280;67954;47.618;17.606;2023-03-22T02:56:24;100179.88;;;10.52;66.46
78643;BME280;67954;47.618;17.606;2023-03-22T02:57:03;100176.41;;;10.42;66.68
78643;BME280;67954;47.618;17.606;2023-03-22T02:57:43;100180.94;;;10.41;66.57
78643;BME280;67954;47.618;17.606;2023-03-22T02:58:18;100186.31;;;10.41;66.63
78643;BME280;67954;47.618;17.606;2023-03-22T02:58:55;100185.59;;;10.39;66.39
78643;BME280;67954;47.618;17.606;2023-03-22T02:59:29;100177.97;;;10.44;66.62
78643;BME280;67954;47.618;17.606;2023-03-22T03:00:03;100186.28;;;10.51;66.31
78643;BME280;67954;47.618;17.606;2023-03-22T03:00:39;100182.28;;;10.55;66.13
78643;BME280;67954;47.618;17.606;2023-03-22T03:01:15;100184.97;;;10.55;66.00
78643;BME280;67954;47.618;17.606;2023-03-22T03:01:51;100187.91;;;10.61;66.06
78643;BME280;67954;47.618;17.606;2023-03-22T03:02:25;100188.44;;;10.65;65.88
78643;BME280;67954;47.618;17.606;2023-03-22T03:03:03;100186.09;;;10.62;66.04
78643;BME280;67954;47.618;17.606;2023-03-22T03:03:41;100183.84;;;10.57;66.10
78643;BME280;67954;47.618;17.606;2023-03-22T03:04:22;100187.38;;;10.58;65.96
78643;BME280;67954;47.618;17.606;2023-03-22T03:04:56;100188.78;;;10.62;65.89